Time;durP1;ratioP1;P1;durP2;ratioP2;P2;SDS_P1;SDS_P2;PMS_P1;PMS_P2;Temp;Humidity;BMP_temperature;BMP_pressure;BME280_temperature;BME280_humidity;BME280_pressure;Samples;Min_cycle;Max_cycle;Signal;HPM_P1;HPM_P2
2021/08/27 00:01:49;;;;;;;6.60;4.03;;;;;;;15.19;67.28;100888.69;5062497;28;20162;-74
2021/08/27 00:04:15;;;;;;;4.40;4.00;;;;;;;15.47;65.81;100892.81;5061706;28;20531;-75
2021/08/27 00:06:40;;;;;;;5.40;4.30;;;;;;;15.44;66.33;100886.75;5061992;28;20177;-75
2021/08/27 00:09:05;;;;;;;5.07;4.03;;;;;;;15.14;67.02;100879.06;5062265;28;20185;-74
2021/08/27 00:11:31;;;;;;;5.17;3.80;;;;;;;15.23;66.94;100872.00;5061524;28;20220;-75
2021/08/27 00:13:56;;;;;;;5.37;3.60;;;;;;;15.13;67.03;100879.09;5061603;28;20180;-74
2021/08/27 00:16:21;;;;;;;8.87;5.40;;;;;;;15.10;67.13;100882.59;5062377;28;20166;-75
2021/08/27 00:18:47;;;;;;;5.30;3.37;;;;;;;15.03;67.49;100880.03;5061624;28;20196;-74
2021/08/27 00:21:12;;;;;;;3.90;3.50;;;;;;;15.19;67.09;100880.78;5061596;28;20170;-76
2021/08/27 00:23:37;;;;;;;4.13;3.63;;;;;;;14.92;68.06;100880.94;5061852;28;20474;-77
2021/08/27 00:26:03;;;;;;;6.33;3.70;;;;;;;15.06;67.70;100880.88;5061419;28;20494;-76
2021/08/27 00:28:28;;;;;;;4.27;3.50;;;;;;;14.70;68.81;100887.22;5061392;28;20201;-76
2021/08/27 00:30:57;;;;;;;4.87;3.43;;;;;;;14.72;68.90;100882.81;5062797;28;20263;-75
2021/08/27 00:33:23;;;;;;;6.67;3.60;;;;;;;14.83;68.66;100886.28;5063222;28;20193;-75
2021/08/27 00:35:48;;;;;;;6.50;4.03;;;;;;;14.91;68.11;100878.34;5062609;28;20391;-75
2021/08/27 00:38:15;;;;;;;6.07;4.07;;;;;;;14.80;68.40;100879.28;5061417;28;20386;-75
2021/08/27 00:40:41;;;;;;;8.20;4.83;;;;;;;14.64;68.97;100878.50;5061056;28;20624;-75
2021/08/27 00:43:07;;;;;;;4.60;3.57;;;;;;;14.59;68.80;100872.38;5060670;28;20386;-76
2021/08/27 00:45:32;;;;;;;4.83;3.33;;;;;;;14.64;68.87;100872.38;5061153;28;20389;-75
2021/08/27 00:48:00;;;;;;;8.40;3.90;;;;;;;14.74;68.53;100867.97;5061264;28;20464;-75
2021/08/27 00:50:25;;;;;;;3.80;3.50;;;;;;;14.45;69.71;100869.81;5061417;28;20182;-75
2021/08/27 00:52:51;;;;;;;5.00;3.80;;;;;;;14.49;69.01;100868.03;5060393;28;20440;-75
2021/08/27 00:55:16;;;;;;;5.20;4.30;;;;;;;14.67;68.74;100872.38;5059947;28;20170;-74
2021/08/27 00:57:41;;;;;;;6.37;3.87;;;;;;;14.61;68.57;100864.47;5060599;28;20170;-74
2021/08/27 01:00:07;;;;;;;4.23;3.40;;;;;;;14.52;69.01;100865.41;5060678;28;20169;-74
2021/08/27 01:02:33;;;;;;;6.63;4.20;;;;;;;14.73;68.66;100860.97;5060704;28;20174;-74
2021/08/27 01:04:58;;;;;;;6.20;3.67;;;;;;;14.60;68.38;100855.75;5060361;28;20399;-75
2021/08/27 01:07:30;;;;;;;5.37;4.00;;;;;;;14.82;68.02;100860.91;5060622;28;20177;-75
2021/08/27 01:10:13;;;;;;;6.63;3.80;;;;;;;14.69;68.24;100853.97;5059867;28;20483;-75
2021/08/27 01:13:09;;;;;;;4.50;4.10;;;;;;;14.56;68.37;100856.66;5060030;28;20419;-74
2021/08/27 01:15:45;;;;;;;3.80;3.27;;;;;;;14.54;68.55;100850.53;5060487;28;20389;-77
2021/08/27 01:18:17;;;;;;;5.27;3.93;;;;;;;14.54;68.42;100849.66;5059923;28;20456;-76
2021/08/27 01:20:59;;;;;;;5.50;4.10;;;;;;;14.24;69.14;100841.91;5060490;28;20387;-75
2021/08/27 01:23:33;;;;;;;6.00;3.77;;;;;;;14.46;68.77;100841.81;5060447;28;20462;-74
2021/08/27 01:25:59;;;;;;;4.57;3.77;;;;;;;14.40;69.25;100847.97;5059725;28;20409;-75
2021/08/27 01:28:26;;;;;;;6.20;3.90;;;;;;;14.37;69.08;100841.84;5059597;28;20408;-75
2021/08/27 01:30:54;;;;;;;5.10;3.93;;;;;;;14.51;68.42;100840.06;5059933;28;20503;-75
2021/08/27 01:33:21;;;;;;;5.73;3.70;;;;;;;14.47;68.46;100847.06;5060302;28;20409;-76
2021/08/27 01:35:55;;;;;;;8.40;4.47;;;;;;;14.30;68.79;100843.63;5059424;28;20401;-75
2021/08/27 01:38:25;;;;;;;5.23;3.70;;;;;;;14.52;68.19;100839.19;5060230;28;20837;-75
2021/08/27 01:40:53;;;;;;;5.90;3.73;;;;;;;14.42;68.69;100846.22;5059292;28;20398;-75
2021/08/27 01:43:20;;;;;;;6.00;3.83;;;;;;;14.65;67.96;100845.25;5059261;28;20420;-74
2021/08/27 01:45:46;;;;;;;6.27;4.73;;;;;;;14.66;67.72;100841.75;5060500;28;20704;-75
2021/08/27 01:48:12;;;;;;;4.80;3.90;;;;;;;14.49;68.23;100841.78;5059215;28;20433;-75
2021/08/27 01:50:38;;;;;;;8.13;4.07;;;;;;;14.47;68.29;100839.19;5058948;28;20857;-75
2021/08/27 01:53:04;;;;;;;6.30;4.10;;;;;;;14.62;68.12;100838.22;5059643;28;20180;-74
2021/08/27 01:55:30;;;;;;;6.37;4.00;;;;;;;14.55;68.01;100838.28;5059672;28;20404;-75
2021/08/27 01:57:55;;;;;;;6.03;3.70;;;;;;;14.70;67.05;100832.97;5059017;28;20412;-74
2021/08/27 02:00:22;;;;;;;5.70;3.57;;;;;;;14.67;67.41;100838.25;5060552;28;20399;-74
2021/08/27 02:02:48;;;;;;;4.90;4.40;;;;;;;14.64;67.62;100833.03;5059150;28;20252;-74
2021/08/27 02:05:13;;;;;;;5.60;3.37;;;;;;;14.79;67.05;100830.31;5058977;28;20531;-74
2021/08/27 02:07:39;;;;;;;5.90;3.70;;;;;;;14.56;67.46;100837.38;5060507;28;20180;-75
2021/08/27 02:10:05;;;;;;;5.60;3.63;;;;;;;14.96;66.43;100830.22;5057768;28;20284;-75
2021/08/27 02:12:30;;;;;;;6.47;3.70;;;;;;;14.77;66.55;100832.06;5059455;28;20222;-75
2021/08/27 02:14:56;;;;;;;5.70;3.90;;;;;;;14.69;67.09;100836.47;5058986;28;20379;-74
2021/08/27 02:17:23;;;;;;;6.87;4.10;;;;;;;14.79;66.85;100840.81;5059375;28;20596;-75
2021/08/27 02:19:49;;;;;;;4.37;3.50;;;;;;;14.96;66.18;100839.81;5059262;28;20820;-75
2021/08/27 02:22:15;;;;;;;6.57;3.87;;;;;;;14.74;67.25;100842.56;5059719;28;20390;-75
2021/08/27 02:24:56;;;;;;;4.70;3.70;;;;;;;14.97;66.34;100841.56;5058164;28;20539;-75
2021/08/27 02:27:23;;;;;;;7.63;4.13;;;;;;;14.74;66.87;100837.31;5058419;28;20397;-75
2021/08/27 02:29:51;;;;;;;4.40;3.50;;;;;;;14.77;66.84;100837.28;5057980;28;20555;-76
2021/08/27 02:32:17;;;;;;;5.70;3.37;;;;;;;14.93;66.36;100837.22;5041539;28;20827;-75
2021/08/27 02:34:45;;;;;;;4.77;3.73;;;;;;;14.83;66.73;100831.16;5058827;28;20383;-76
2021/08/27 02:37:12;;;;;;;5.70;3.20;;;;;;;15.01;66.05;100832.78;5058945;28;20415;-76
2021/08/27 02:39:38;;;;;;;8.23;3.50;;;;;;;15.11;66.12;100828.31;5059074;28;20691;-76
2021/08/27 02:42:03;;;;;;;7.07;3.33;;;;;;;15.10;65.81;100830.09;5059403;28;20387;-76
2021/08/27 02:44:29;;;;;;;5.60;3.90;;;;;;;14.87;66.68;100832.88;5058732;28;20180;-74
2021/08/27 02:46:54;;;;;;;7.97;3.77;;;;;;;14.76;67.27;100829.44;5059195;28;20173;-74
2021/08/27 02:49:19;;;;;;;8.93;4.37;;;;;;;15.09;65.66;100832.72;5059535;28;20181;-75
2021/08/27 02:52:08;;;;;;;6.17;4.70;;;;;;;15.19;65.91;100833.53;5058017;28;20202;-75
2021/08/27 02:54:44;;;;;;;6.57;3.50;;;;;;;15.10;65.94;100837.09;5058519;28;20258;-75
2021/08/27 02:57:11;;;;;;;5.67;3.50;;;;;;;15.10;66.05;100824.84;5058111;28;20387;-74
2021/08/27 02:59:36;;;;;;;6.20;3.50;;;;;;;15.08;66.04;100826.59;5058659;28;20444;-75
2021/08/27 03:02:03;;;;;;;7.23;3.80;;;;;;;15.12;66.02;100812.56;5058545;28;20412;-74
2021/08/27 03:04:47;;;;;;;5.50;3.73;;;;;;;15.11;65.94;100818.72;5057576;28;20383;-75
2021/08/27 03:07:14;;;;;;;5.07;3.40;;;;;;;14.90;66.49;100819.72;5057873;28;20383;-75
2021/08/27 03:09:50;;;;;;;5.40;3.33;;;;;;;15.03;66.08;100823.13;5058351;28;20382;-74
2021/08/27 03:12:19;;;;;;;8.43;3.03;;;;;;;15.09;65.96;100820.47;5058544;28;20395;-75
2021/08/27 03:14:55;;;;;;;4.93;3.77;;;;;;;14.94;66.10;100810.94;5058072;28;20481;-74
2021/08/27 03:17:21;;;;;;;12.63;4.07;;;;;;;14.97;66.44;100807.44;5057628;28;20497;-74
2021/08/27 03:20:17;;;;;;;4.20;3.67;;;;;;;14.85;66.57;100803.13;5058108;28;20870;-75
2021/08/27 03:22:47;;;;;;;4.20;3.60;;;;;;;15.20;65.62;100799.38;5040417;28;20391;-74
2021/08/27 03:25:13;;;;;;;9.67;4.27;;;;;;;15.06;65.88;100801.22;5057364;28;20391;-74
2021/08/27 03:27:44;;;;;;;7.97;3.77;;;;;;;15.52;65.03;100799.94;5057337;28;20404;-75
2021/08/27 03:30:14;;;;;;;4.43;3.80;;;;;;;15.34;65.30;100796.63;5057073;28;20446;-74
2021/08/27 03:32:44;;;;;;;7.90;3.60;;;;;;;15.26;65.74;100793.19;5057444;28;20444;-75
2021/08/27 03:35:12;;;;;;;6.43;3.60;;;;;;;15.20;65.88;100793.25;5057303;28;20463;-75
2021/08/27 03:37:38;;;;;;;4.77;3.30;;;;;;;15.13;66.50;100788.03;5057632;28;20387;-75
2021/08/27 03:40:03;;;;;;;4.53;3.33;;;;;;;14.99;67.22;100784.66;5057285;28;20454;-75
2021/08/27 03:42:29;;;;;;;6.50;4.40;;;;;;;15.29;66.38;100788.78;5057216;28;20561;-75
2021/08/27 03:44:54;;;;;;;12.37;4.37;;;;;;;15.27;66.38;100782.66;5057581;28;20207;-75
2021/08/27 03:47:20;;;;;;;5.93;3.60;;;;;;;15.34;66.40;100780.84;5057234;28;20177;-75
2021/08/27 03:49:47;;;;;;;5.60;3.53;;;;;;;15.40;66.24;100791.31;5057218;28;20207;-76
2021/08/27 03:52:12;;;;;;;6.63;3.93;;;;;;;15.16;66.87;100781.91;5057689;28;20415;-75
2021/08/27 03:54:38;;;;;;;5.37;3.60;;;;;;;14.96;67.37;100780.31;5057027;28;20422;-75
2021/08/27 03:57:04;;;;;;;5.83;3.60;;;;;;;15.17;66.79;100773.16;5057967;28;20188;-76
2021/08/27 03:59:31;;;;;;;7.20;4.07;;;;;;;15.08;66.95;100778.47;5058490;28;20260;-75
2021/08/27 04:01:57;;;;;;;5.90;3.80;;;;;;;15.10;66.50;100777.56;5057106;28;20405;-76
2021/08/27 04:04:23;;;;;;;6.50;3.50;;;;;;;15.21;66.99;100773.97;5057750;28;20424;-76
2021/08/27 04:06:58;;;;;;;3.70;3.30;;;;;;;15.13;66.69;100785.41;5058090;28;20467;-75
2021/08/27 04:09:24;;;;;;;9.97;3.70;;;;;;;15.23;67.06;100787.97;5057740;28;20177;-75
2021/08/27 04:11:49;;;;;;;6.23;3.90;;;;;;;15.23;66.85;100774.84;5057081;28;20738;-75
2021/08/27 04:14:15;;;;;;;8.23;4.03;;;;;;;15.13;67.00;100785.41;5057687;28;20174;-74
2021/08/27 04:16:41;;;;;;;4.37;3.53;;;;;;;15.04;67.61;100775.00;5057786;28;20169;-73
2021/08/27 04:19:07;;;;;;;5.33;3.57;;;;;;;15.13;67.37;100777.53;5040598;28;20557;-73
2021/08/27 04:21:32;;;;;;;5.67;3.80;;;;;;;15.39;66.74;100779.06;5057641;28;20395;-74
2021/08/27 04:23:57;;;;;;;6.00;3.60;;;;;;;15.69;66.15;100765.63;5057562;28;20169;-73
2021/08/27 04:26:23;;;;;;;4.20;3.33;;;;;;;15.77;65.51;100764.63;5057147;28;20178;-74
2021/08/27 04:28:48;;;;;;;6.07;4.10;;;;;;;15.34;66.48;100762.47;5057770;28;20449;-75
2021/08/27 04:31:13;;;;;;;4.33;3.07;;;;;;;15.52;65.86;100774.56;5057509;28;20225;-75
2021/08/27 04:33:39;;;;;;;6.07;3.70;;;;;;;15.23;67.16;100766.97;5059305;28;20197;-73
2021/08/27 04:36:04;;;;;;;4.83;3.53;;;;;;;15.36;66.63;100773.84;5062402;28;20223;-74
2021/08/27 04:38:29;;;;;;;4.30;3.70;;;;;;;15.30;66.84;100768.63;5063652;28;20612;-74
2021/08/27 04:40:55;;;;;;;8.60;3.80;;;;;;;15.21;67.08;100771.34;5062563;28;20522;-76
2021/08/27 04:43:20;;;;;;;6.00;3.53;;;;;;;15.38;67.11;100765.94;5061187;28;20223;-76
2021/08/27 04:45:46;;;;;;;6.87;3.90;;;;;;;15.47;66.92;100765.84;5061197;28;20208;-75
2021/08/27 04:48:11;;;;;;;7.57;3.90;;;;;;;15.47;67.17;100771.13;5060940;28;20174;-76
2021/08/27 04:50:36;;;;;;;7.53;3.73;;;;;;;15.69;66.54;100766.47;5060299;28;20231;-76
2021/08/27 04:53:02;;;;;;;4.20;3.20;;;;;;;15.37;67.84;100769.44;5060982;28;20218;-75
2021/08/27 04:55:27;;;;;;;3.80;3.20;;;;;;;15.44;67.70;100763.28;5061585;28;20198;-75
2021/08/27 04:57:52;;;;;;;8.33;3.80;;;;;;;15.71;67.46;100761.22;5060996;28;20177;-76
2021/08/27 05:00:17;;;;;;;5.00;3.40;;;;;;;16.06;66.03;100771.34;5061022;28;20551;-76
2021/08/27 05:02:43;;;;;;;5.70;3.53;;;;;;;15.61;67.39;100774.47;5061451;28;20526;-76
2021/08/27 05:05:09;;;;;;;6.27;3.20;;;;;;;15.68;67.41;100762.09;5060650;28;20170;-75
2021/08/27 05:07:35;;;;;;;6.40;3.47;;;;;;;15.76;67.58;100768.19;5059831;28;20170;-76
2021/08/27 05:10:00;;;;;;;5.47;3.23;;;;;;;15.70;67.89;100776.13;5060954;28;20432;-77
2021/08/27 05:12:26;;;;;;;4.10;3.50;;;;;;;15.69;67.80;100771.75;5060531;28;20261;-75
2021/08/27 05:14:51;;;;;;;5.17;3.67;;;;;;;15.64;68.15;100776.16;5060602;28;20180;-74
2021/08/27 05:17:16;;;;;;;5.43;3.20;;;;;;;15.62;68.55;100783.22;5061834;28;20178;-76
2021/08/27 05:19:41;;;;;;;6.60;3.80;;;;;;;15.48;69.11;100778.97;5060608;28;20181;-76
2021/08/27 05:22:07;;;;;;;8.30;3.80;;;;;;;15.36;69.54;100789.59;5060723;28;20182;-75
2021/08/27 05:24:32;;;;;;;8.70;4.10;;;;;;;15.68;68.97;100782.28;5060741;28;20215;-75
2021/08/27 05:26:58;;;;;;;5.80;3.70;;;;;;;15.48;69.45;100775.50;5060194;28;20231;-76
2021/08/27 05:29:23;;;;;;;7.17;5.00;;;;;;;15.92;68.23;100779.41;5059977;28;20271;-76
2021/08/27 05:31:49;;;;;;;8.90;3.53;;;;;;;15.56;69.59;100780.63;5060886;28;20447;-76
2021/08/27 05:34:14;;;;;;;5.90;3.60;;;;;;;15.60;69.54;100777.09;5059989;28;20170;-75
2021/08/27 05:36:39;;;;;;;6.00;3.97;;;;;;;15.53;70.17;100781.53;5059959;28;20262;-73
2021/08/27 05:39:05;;;;;;;6.00;4.30;;;;;;;15.53;70.09;100773.66;5060584;28;20245;-74
2021/08/27 05:41:33;;;;;;;7.87;4.03;;;;;;;15.78;69.38;100787.41;5059820;28;20196;-74
2021/08/27 05:43:58;;;;;;;5.27;3.43;;;;;;;15.55;69.98;100784.19;5059390;28;20197;-76
2021/08/27 05:46:24;;;;;;;5.33;3.70;;;;;;;15.64;69.94;100784.06;5060484;28;20442;-76
2021/08/27 05:48:49;;;;;;;11.23;3.70;;;;;;;15.48;70.61;100793.88;5059850;28;20312;-76
2021/08/27 05:51:14;;;;;;;5.87;3.60;;;;;;;16.03;69.20;100787.16;5059835;28;20216;-75
2021/08/27 05:53:40;;;;;;;8.93;3.30;;;;;;;16.01;68.59;100788.94;5060555;28;20550;-75
2021/08/27 05:56:05;;;;;;;4.47;4.00;;;;;;;16.04;68.96;100790.66;5059778;28;20264;-75
2021/08/27 05:58:30;;;;;;;8.43;5.00;;;;;;;15.99;69.10;100785.44;5059714;28;20204;-76
2021/08/27 06:00:56;;;;;;;6.60;4.37;;;;;;;15.94;69.33;100792.50;5059942;28;20170;-76
2021/08/27 06:03:21;;;;;;;4.17;3.57;;;;;;;16.24;68.14;100793.06;5059406;28;20169;-76
2021/08/27 06:05:47;;;;;;;6.03;3.60;;;;;;;16.04;69.58;100782.78;5058963;28;20497;-76
2021/08/27 06:08:12;;;;;;;4.10;3.10;;;;;;;16.25;68.20;100793.03;5060168;28;20219;-76
2021/08/27 06:10:37;;;;;;;7.13;4.43;;;;;;;16.35;68.14;100788.50;5059403;28;20274;-76
2021/08/27 06:13:03;;;;;;;5.10;3.60;;;;;;;16.12;68.81;100794.06;5059432;28;20261;-74
2021/08/27 06:15:28;;;;;;;4.63;3.37;;;;;;;16.21;68.54;100798.34;5059836;28;20204;-76
2021/08/27 06:17:54;;;;;;;7.70;3.73;;;;;;;15.81;70.27;100795.28;5059369;28;20217;-75
2021/08/27 06:20:19;;;;;;;4.90;3.20;;;;;;;16.01;70.00;100799.47;5059111;28;20174;-75
2021/08/27 06:22:44;;;;;;;5.30;4.60;;;;;;;15.68;71.05;100801.53;5060089;28;20543;-76
2021/08/27 06:25:10;;;;;;;3.67;3.37;;;;;;;15.89;71.14;100799.59;5059415;28;20185;-76
2021/08/27 06:27:35;;;;;;;4.17;3.70;;;;;;;15.58;73.61;100802.53;5059249;28;20278;-76
2021/08/27 06:30:00;;;;;;;5.60;3.40;;;;;;;15.68;73.56;100798.03;5058304;28;20327;-76
2021/08/27 06:32:27;;;;;;;5.90;3.30;;;;;;;15.79;73.48;100802.31;5059027;28;20205;-74
2021/08/27 06:34:54;;;;;;;5.50;3.90;;;;;;;15.95;73.49;100802.16;5059275;28;20192;-76
2021/08/27 06:37:20;;;;;;;6.90;3.87;;;;;;;15.60;73.51;100806.00;5059125;28;20480;-75
2021/08/27 06:39:46;;;;;;;6.13;3.80;;;;;;;16.09;72.94;100805.50;5058581;28;20468;-74
2021/08/27 06:42:11;;;;;;;6.40;3.87;;;;;;;16.25;72.34;100807.94;5058721;28;20503;-75
2021/08/27 06:44:36;;;;;;;5.20;3.80;;;;;;;15.94;73.21;100813.53;5058039;28;20186;-74
2021/08/27 06:47:02;;;;;;;5.63;3.30;;;;;;;15.87;73.27;100807.53;5058802;28;20181;-75
2021/08/27 06:49:27;;;;;;;7.27;3.80;;;;;;;15.90;74.01;100811.84;5059336;28;20173;-73
2021/08/27 06:51:53;;;;;;;4.77;3.40;;;;;;;16.20;72.97;100812.41;5057725;28;20260;-76
2021/08/27 06:54:18;;;;;;;5.73;3.60;;;;;;;16.40;72.92;100812.13;5057975;28;20440;-76
2021/08/27 06:56:43;;;;;;;4.60;4.03;;;;;;;16.27;73.38;100812.28;5058489;28;20189;-76
2021/08/27 06:59:09;;;;;;;6.43;4.50;;;;;;;16.26;72.86;100801.78;5058455;28;20182;-77
2021/08/27 07:01:34;;;;;;;4.87;3.33;;;;;;;15.97;73.95;100814.41;5058341;28;20192;-76
2021/08/27 07:03:59;;;;;;;5.17;4.60;;;;;;;16.34;73.66;100813.06;5058678;28;20193;-76
2021/08/27 07:06:24;;;;;;;5.63;3.90;;;;;;;16.24;73.97;100817.59;5058368;28;20204;-76
2021/08/27 07:08:50;;;;;;;6.13;3.57;;;;;;;16.37;73.51;100813.03;5058246;28;20170;-77
2021/08/27 07:11:16;;;;;;;4.03;3.73;;;;;;;16.38;73.70;100819.19;5058846;28;20205;-76
2021/08/27 07:13:45;;;;;;;6.47;5.07;;;;;;;16.46;74.21;100812.91;5057368;28;20445;-76
2021/08/27 07:16:11;;;;;;;4.33;3.60;;;;;;;16.86;72.33;100819.38;5058420;28;20174;-77
2021/08/27 07:18:39;;;;;;;5.23;3.70;;;;;;;16.73;72.67;100816.03;5057931;28;20412;-76
2021/08/27 07:21:05;;;;;;;4.43;3.80;;;;;;;16.95;72.22;100815.75;5058255;28;20393;-76
2021/08/27 07:23:30;;;;;;;4.03;3.50;;;;;;;16.80;72.92;100817.69;5058147;28;20390;-76
2021/08/27 07:25:55;;;;;;;5.63;5.03;;;;;;;16.64;74.00;100821.44;5058559;28;20178;-76
2021/08/27 07:28:21;;;;;;;5.43;3.40;;;;;;;16.52;74.26;100821.59;5058371;28;20291;-76
2021/08/27 07:30:46;;;;;;;4.27;3.50;;;;;;;16.89;73.00;100824.63;5058714;28;20300;-75
2021/08/27 07:33:11;;;;;;;3.90;3.50;;;;;;;16.74;73.26;100823.06;5057955;28;20200;-74
2021/08/27 07:35:37;;;;;;;4.33;3.20;;;;;;;16.84;72.71;100822.03;5058050;28;20170;-74
2021/08/27 07:38:02;;;;;;;3.20;2.90;;;;;;;16.95;72.57;100819.28;5058143;28;20189;-75
2021/08/27 07:40:28;;;;;;;5.90;4.83;;;;;;;17.23;71.69;100823.22;5058782;28;20201;-76
2021/08/27 07:42:53;;;;;;;4.67;3.17;;;;;;;16.83;73.51;100828.19;5058875;28;20437;-76
2021/08/27 07:45:18;;;;;;;4.20;3.63;;;;;;;16.75;74.18;100830.06;5059133;28;20440;-75
2021/08/27 07:47:45;;;;;;;4.20;3.73;;;;;;;16.67;74.71;100831.94;5058415;28;20184;-75
2021/08/27 07:50:11;;;;;;;3.70;3.30;;;;;;;16.45;75.32;100834.88;5057941;28;20208;-76
2021/08/27 07:52:37;;;;;;;5.03;3.80;;;;;;;16.94;73.70;100838.59;5058075;28;20687;-75
2021/08/27 07:55:03;;;;;;;4.40;4.00;;;;;;;17.34;72.40;100840.56;5058206;28;20391;-77
2021/08/27 07:57:29;;;;;;;6.33;4.30;;;;;;;17.85;71.20;100839.66;5057818;28;20208;-77
2021/08/27 07:59:54;;;;;;;5.60;4.57;;;;;;;17.54;72.84;100839.38;5057736;28;20390;-76
2021/08/27 08:02:19;;;;;;;3.80;3.33;;;;;;;17.69;71.57;100832.94;5058001;28;20177;-77
2021/08/27 08:04:45;;;;;;;4.77;3.73;;;;;;;17.60;71.65;100836.63;5056873;28;20212;-77
2021/08/27 08:07:10;;;;;;;8.10;4.80;;;;;;;17.74;70.99;100838.13;5058748;28;20169;-76
2021/08/27 08:09:35;;;;;;;6.37;4.50;;;;;;;17.46;72.57;100846.53;5062254;28;20477;-76
2021/08/27 08:12:01;;;;;;;4.93;4.27;;;;;;;17.16;73.63;100843.53;5061725;28;20209;-77
2021/08/27 08:14:26;;;;;;;4.97;4.57;;;;;;;17.23;73.89;100846.94;5061390;28;20423;-77
2021/08/27 08:16:51;;;;;;;4.93;4.43;;;;;;;17.82;71.33;100847.66;5062746;28;20441;-77
2021/08/27 08:19:17;;;;;;;4.47;3.73;;;;;;;17.30;73.14;100848.56;5062246;28;20177;-77
2021/08/27 08:21:42;;;;;;;4.27;3.87;;;;;;;17.81;71.60;100855.59;5063140;28;20256;-76
2021/08/27 08:24:08;;;;;;;5.43;4.20;;;;;;;17.33;73.38;100865.19;5062276;28;20545;-75
2021/08/27 08:26:33;;;;;;;4.20;3.40;;;;;;;17.18;73.49;100860.16;5061593;28;20271;-76
2021/08/27 08:28:59;;;;;;;4.47;3.53;;;;;;;17.93;71.26;100859.81;5061160;28;20177;-76
2021/08/27 08:31:24;;;;;;;3.50;3.13;;;;;;;18.06;70.30;100866.56;5061797;28;20189;-75
2021/08/27 08:33:53;;;;;;;4.20;3.77;;;;;;;18.24;70.24;100872.38;5061029;28;20453;-74
2021/08/27 08:36:18;;;;;;;4.30;3.90;;;;;;;18.83;68.83;100870.25;5044808;28;20170;-74
2021/08/27 08:38:45;;;;;;;4.60;4.17;;;;;;;18.51;69.37;100876.25;5064014;28;20783;-76
2021/08/27 08:41:11;;;;;;;3.20;2.90;;;;;;;18.30;69.33;100878.41;5063031;28;20805;-76
2021/08/27 08:43:37;;;;;;;5.10;4.60;;;;;;;18.32;70.14;100883.63;5061762;28;20398;-76
2021/08/27 08:46:03;;;;;;;5.63;3.80;;;;;;;18.52;69.44;100876.19;5062478;28;20401;-75
2021/08/27 08:48:29;;;;;;;6.10;3.97;;;;;;;18.59;68.47;100878.69;5061178;28;20181;-76
2021/08/27 08:50:54;;;;;;;5.33;3.77;;;;;;;19.30;66.84;100870.03;5060800;28;20465;-77
2021/08/27 08:53:22;;;;;;;3.90;3.20;;;;;;;19.02;66.85;100869.84;5060981;28;20487;-76
2021/08/27 08:55:49;;;;;;;5.70;3.80;;;;;;;18.83;67.17;100872.91;5060458;28;20188;-76
2021/08/27 08:58:14;;;;;;;3.63;3.17;;;;;;;18.71;67.71;100875.78;5061062;28;20424;-76
2021/08/27 09:00:40;;;;;;;3.40;3.10;;;;;;;18.39;68.35;100871.19;5060998;28;20419;-76
2021/08/27 09:03:05;;;;;;;3.07;2.77;;;;;;;18.27;68.58;100881.09;5059662;28;20177;-75
2021/08/27 09:05:31;;;;;;;3.97;2.70;;;;;;;18.57;67.92;100875.22;5060854;28;20256;-75
2021/08/27 09:07:56;;;;;;;4.00;3.13;;;;;;;18.40;68.33;100881.75;5061316;28;20177;-77
2021/08/27 09:10:22;;;;;;;4.70;3.40;;;;;;;18.09;69.61;100885.00;5060648;28;20212;-76
2021/08/27 09:12:48;;;;;;;4.90;4.40;;;;;;;18.45;68.82;100879.84;5060508;28;20173;-77
2021/08/27 09:15:15;;;;;;;6.27;4.53;;;;;;;18.58;68.01;100884.88;5060793;28;20419;-77
2021/08/27 09:17:46;;;;;;;6.73;5.50;;;;;;;18.79;67.59;100887.03;5060446;28;20486;-72
2021/08/27 09:20:17;;;;;;;3.53;3.23;;;;;;;18.93;66.79;100880.63;5059640;28;20427;-76
2021/08/27 09:22:47;;;;;;;3.60;3.00;;;;;;;18.74;67.03;100878.38;5060361;28;20428;-75
2021/08/27 09:25:12;;;;;;;4.90;4.40;;;;;;;18.62;66.98;100879.50;5060230;28;20408;-75
2021/08/27 09:28:03;;;;;;;3.50;3.17;;;;;;;18.56;67.47;100873.50;5059899;28;20721;-77
2021/08/27 09:30:29;;;;;;;4.17;3.60;;;;;;;18.67;67.17;100880.28;5060116;28;20229;-76
2021/08/27 09:32:55;;;;;;;3.83;3.50;;;;;;;18.74;67.03;100883.66;5060442;28;20546;-75
2021/08/27 09:35:23;;;;;;;3.60;3.10;;;;;;;19.72;63.51;100882.22;5060330;28;20515;-76
2021/08/27 09:37:50;;;;;;;4.63;4.10;;;;;;;19.43;65.60;100881.19;5060338;28;20177;-76
2021/08/27 09:40:18;;;;;;;5.13;4.40;;;;;;;20.00;64.41;100886.81;5059797;28;20649;-75
2021/08/27 09:42:48;;;;;;;3.30;2.93;;;;;;;20.06;64.77;100884.00;5060052;28;20455;-76
2021/08/27 09:45:14;;;;;;;5.40;3.23;;;;;;;19.73;65.47;100889.25;5060045;28;20416;-75
2021/08/27 09:47:58;;;;;;;4.13;3.43;;;;;;;22.08;58.27;100890.03;5060269;28;20813;-75
2021/08/27 09:50:26;;;;;;;3.30;2.83;;;;;;;21.31;59.70;100903.25;5059759;28;20201;-76
2021/08/27 09:52:53;;;;;;;4.50;3.40;;;;;;;20.91;61.29;100894.78;5058984;28;20427;-78
2021/08/27 09:55:18;;;;;;;3.20;2.90;;;;;;;23.31;56.00;100883.63;5059656;28;20678;-77
2021/08/27 09:57:45;;;;;;;4.23;2.80;;;;;;;23.69;53.42;100886.47;5059043;28;20531;-78
2021/08/27 10:00:20;;;;;;;4.70;2.90;;;;;;;25.24;49.37;100882.13;5059287;28;20174;-76
2021/08/27 10:02:47;;;;;;;3.87;3.47;;;;;;;26.59;45.94;100876.00;5059611;28;20403;-76
2021/08/27 10:05:13;;;;;;;2.63;2.10;;;;;;;27.31;43.74;100868.41;5059337;28;20647;-75
2021/08/27 10:07:40;;;;;;;2.87;2.47;;;;;;;26.56;44.79;100869.00;5059577;28;20412;-76
2021/08/27 10:10:10;;;;;;;3.07;2.40;;;;;;;24.51;47.73;100870.41;5059503;28;20825;-77
2021/08/27 10:12:39;;;;;;;2.33;2.13;;;;;;;23.29;51.35;100873.06;5059292;28;20462;-74
2021/08/27 10:15:07;;;;;;;6.53;4.03;;;;;;;22.65;53.91;100884.44;5058609;28;20416;-78
2021/08/27 10:17:37;;;;;;;2.90;2.40;;;;;;;20.86;57.42;100889.66;5058668;28;20479;-76
2021/08/27 10:20:07;;;;;;;4.80;4.30;;;;;;;20.72;58.91;100886.53;5059317;28;20431;-75
2021/08/27 10:22:36;;;;;;;3.30;3.00;;;;;;;20.19;59.90;100888.03;5059315;28;20431;-76
2021/08/27 10:25:06;;;;;;;3.70;3.40;;;;;;;20.56;59.70;100894.03;5058382;28;20419;-74
2021/08/27 10:27:33;;;;;;;4.97;3.20;;;;;;;21.18;57.33;100885.09;5048385;28;20423;-75
2021/08/27 10:29:58;;;;;;;3.20;2.87;;;;;;;20.82;58.89;100893.31;5050462;28;20469;-74
2021/08/27 10:32:39;;;;;;;3.17;2.70;;;;;;;20.10;60.25;100898.88;5038630;28;20791;-76
2021/08/27 10:35:08;;;;;;;3.77;3.47;;;;;;;20.14;60.28;100897.88;5053186;28;20177;-76
2021/08/27 10:37:42;;;;;;;3.73;2.73;;;;;;;19.53;62.12;100901.19;5059232;28;20662;-76
2021/08/27 10:40:22;;;;;;;3.30;2.67;;;;;;;20.09;61.31;100910.34;5059105;28;20485;-76
2021/08/27 10:43:00;;;;;;;3.10;2.80;;;;;;;20.58;59.78;100899.28;5050957;28;20474;-74
2021/08/27 10:45:31;;;;;;;3.57;2.80;;;;;;;20.42;59.42;100901.50;5038851;28;20559;-76
2021/08/27 10:48:10;;;;;;;3.13;2.80;;;;;;;19.58;62.17;100906.38;5038885;28;20416;-75
2021/08/27 10:50:36;;;;;;;3.20;2.70;;;;;;;19.23;63.97;100907.22;5039359;28;20464;-76
2021/08/27 10:53:19;;;;;;;4.93;4.43;;;;;;;20.03;61.79;100907.91;5038393;28;20686;-76
2021/08/27 10:55:45;;;;;;;2.87;2.67;;;;;;;20.32;61.04;100900.91;5040284;28;20444;-75
2021/08/27 10:58:13;;;;;;;3.87;3.00;;;;;;;20.23;61.67;100911.75;5039030;28;20742;-76
2021/08/27 11:00:49;;;;;;;3.63;2.90;;;;;;;21.69;57.80;100907.31;5052675;28;20734;-75
2021/08/27 11:03:15;;;;;;;3.97;3.43;;;;;;;21.54;59.20;100907.81;5058475;28;20412;-77
2021/08/27 11:05:48;;;;;;;3.33;2.60;;;;;;;22.35;56.95;100900.63;5058334;28;20434;-74
2021/08/27 11:08:35;;;;;;;2.90;2.70;;;;;;;22.48;54.74;100896.56;5058409;28;20801;-76
2021/08/27 11:11:09;;;;;;;3.93;3.60;;;;;;;22.47;54.12;100900.16;5058150;28;20501;-76
2021/08/27 11:13:38;;;;;;;3.60;2.40;;;;;;;22.18;53.87;100902.06;5057857;28;20542;-75
2021/08/27 11:16:18;;;;;;;2.60;2.40;;;;;;;20.83;55.66;100910.91;5057171;28;20481;-74
2021/08/27 11:18:44;;;;;;;4.37;3.97;;;;;;;21.49;52.99;100912.41;5057991;28;20728;-73
2021/08/27 11:21:40;;;;;;;3.70;2.80;;;;;;;20.81;53.25;100915.41;5058091;28;20412;-75
2021/08/27 11:24:21;;;;;;;3.67;2.40;;;;;;;20.89;54.78;100924.91;5057231;28;20280;-75
2021/08/27 11:27:07;;;;;;;2.67;2.30;;;;;;;19.83;55.62;100922.50;5057588;28;20420;-74